createdAt,value
2023-02-16T00:01:53.805Z,27.65
2023-02-16T00:04:26.485Z,28.48
2023-02-16T00:06:53.940Z,29.13
2023-02-16T00:09:21.656Z,27.87
2023-02-16T00:12:07.194Z,29.08
2023-02-16T00:14:35.931Z,28.40
2023-02-16T00:17:03.266Z,28.60
2023-02-16T00:19:31.145Z,26.27
2023-02-16T00:21:59.108Z,28.13
2023-02-16T00:24:27.143Z,27.73
2023-02-16T00:26:53.927Z,29.67
2023-02-16T00:29:27.213Z,28.35
2023-02-16T00:31:54.957Z,28.55
2023-02-16T00:34:33.178Z,28.90
2023-02-16T00:37:03.679Z,28.88
2023-02-16T00:39:30.283Z,28.65
2023-02-16T00:42:01.149Z,29.65
2023-02-16T00:44:39.179Z,29.08
2023-02-16T00:47:42.923Z,28.67
2023-02-16T00:50:18.203Z,27.20
2023-02-16T00:52:48.766Z,30.42
2023-02-16T00:55:18.035Z,29.17
2023-02-16T00:57:49.847Z,28.77
2023-02-16T01:00:30.085Z,29.30
2023-02-16T01:02:59.957Z,28.98
2023-02-16T01:05:26.498Z,29.30
2023-02-16T01:08:11.634Z,28.75
2023-02-16T01:10:58.512Z,29.27
2023-02-16T01:13:28.417Z,29.23
2023-02-16T01:15:55.589Z,29.60
2023-02-16T01:18:22.267Z,29.25
2023-02-16T01:20:49.777Z,28.83
2023-02-16T01:23:16.179Z,31.05
2023-02-16T01:25:42.764Z,28.50
2023-02-16T01:28:22.158Z,28.38
2023-02-16T01:30:50.057Z,29.10
2023-02-16T01:33:16.591Z,30.02
2023-02-16T01:35:43.639Z,29.75
2023-02-16T01:38:22.183Z,30.97
2023-02-16T01:40:56.192Z,30.77
2023-02-16T01:43:26.009Z,29.85
2023-02-16T01:46:05.692Z,29.10
2023-02-16T01:48:32.754Z,28.75
2023-02-16T01:51:15.045Z,29.33
2023-02-16T01:53:51.267Z,29.73
2023-02-16T01:56:39.395Z,29.48
2023-02-16T01:59:23.763Z,30.27
2023-02-16T02:02:04.005Z,29.88
2023-02-16T02:05:01.238Z,29.50
2023-02-16T02:07:35.423Z,30.98
2023-02-16T02:10:18.797Z,29.58
2023-02-16T02:12:55.622Z,29.00
2023-02-16T02:15:26.501Z,29.35
2023-02-16T02:17:52.838Z,30.20
2023-02-16T02:21:01.275Z,29.90
2023-02-16T02:23:57.868Z,30.98
2023-02-16T02:26:53.160Z,29.08
2023-02-16T02:29:57.222Z,31.05
2023-02-16T02:32:50.041Z,29.23
2023-02-16T02:35:41.404Z,29.38
2023-02-16T02:38:26.323Z,29.38
2023-02-16T02:41:18.502Z,31.13
2023-02-16T02:43:57.022Z,31.20
2023-02-16T02:46:32.350Z,31.10
2023-02-16T02:48:58.844Z,30.02
2023-02-16T02:51:28.426Z,30.73
2023-02-16T02:54:25.266Z,30.92
2023-02-16T02:57:38.007Z,29.95
2023-02-16T03:00:28.918Z,30.30
2023-02-16T03:03:01.927Z,30.63
2023-02-16T03:05:31.536Z,31.17
2023-02-16T03:08:14.236Z,30.92
2023-02-16T03:11:30.902Z,30.30
2023-02-16T03:14:01.666Z,30.93
2023-02-16T03:16:42.103Z,31.33
2023-02-16T03:19:29.662Z,31.40
2023-02-16T03:22:17.071Z,31.75
2023-02-16T03:25:02.296Z,31.23
2023-02-16T03:27:51.625Z,30.63
2023-02-16T03:30:19.316Z,31.35
2023-02-16T03:32:46.514Z,31.65
2023-02-16T03:35:13.353Z,31.48
2023-02-16T03:37:41.338Z,32.13
2023-02-16T03:40:29.284Z,31.67
2023-02-16T03:42:58.118Z,32.20
2023-02-16T03:45:25.415Z,31.45
2023-02-16T03:47:51.970Z,32.17
2023-02-16T03:50:18.328Z,32.55
2023-02-16T03:52:44.720Z,31.97
2023-02-16T03:55:11.187Z,32.08
2023-02-16T03:57:37.550Z,30.88
2023-02-16T04:00:04.352Z,32.80
2023-02-16T04:02:30.794Z,32.00
2023-02-16T04:04:58.172Z,33.37
2023-02-16T04:07:25.000Z,33.50
2023-02-16T04:09:51.375Z,33.03
2023-02-16T04:12:46.617Z,32.97
2023-02-16T04:15:16.437Z,33.30
2023-02-16T04:17:43.233Z,30.93
2023-02-16T04:20:13.038Z,32.58
2023-02-16T04:22:39.847Z,32.50
2023-02-16T04:25:06.839Z,32.88
2023-02-16T04:27:33.404Z,32.17
2023-02-16T04:29:59.950Z,33.10
2023-02-16T04:32:26.343Z,33.15
2023-02-16T04:34:52.784Z,32.72
2023-02-16T04:37:19.189Z,32.42
2023-02-16T04:39:45.552Z,31.42
2023-02-16T04:42:11.941Z,33.33
2023-02-16T04:44:38.330Z,33.20
2023-02-16T04:47:05.005Z,33.42
2023-02-16T04:49:31.566Z,32.65
2023-02-16T04:51:57.985Z,33.70
2023-02-16T04:54:24.354Z,33.30
2023-02-16T04:56:50.730Z,34.33
2023-02-16T04:59:17.140Z,33.97
2023-02-16T05:01:43.724Z,32.97
2023-02-16T05:04:10.568Z,32.72
2023-02-16T05:06:38.437Z,33.03
2023-02-16T05:09:06.109Z,33.20
2023-02-16T05:11:51.311Z,33.85
2023-02-16T05:14:39.521Z,33.88
2023-02-16T05:17:06.106Z,33.60
2023-02-16T05:19:32.496Z,33.27
2023-02-16T05:21:58.997Z,33.22
2023-02-16T05:24:27.729Z,34.63
2023-02-16T05:26:54.867Z,32.95
2023-02-16T05:29:21.336Z,34.13
2023-02-16T05:31:48.279Z,33.37
2023-02-16T05:34:14.811Z,33.15
2023-02-16T05:36:41.182Z,33.10
2023-02-16T05:39:07.638Z,32.80
2023-02-16T05:41:34.134Z,34.47
2023-02-16T05:44:02.465Z,33.07
2023-02-16T05:46:32.535Z,34.78
2023-02-16T05:49:00.364Z,32.97
2023-02-16T05:51:27.232Z,33.70
2023-02-16T05:53:53.889Z,33.67
2023-02-16T05:56:21.421Z,32.87
2023-02-16T05:58:47.911Z,34.85
2023-02-16T06:01:15.132Z,33.75
2023-02-16T06:03:41.869Z,33.33
2023-02-16T06:06:09.069Z,33.45
2023-02-16T06:08:36.641Z,33.47
2023-02-16T06:11:06.947Z,34.15
2023-02-16T06:13:34.235Z,35.17
2023-02-16T06:16:00.677Z,35.10
2023-02-16T06:18:27.182Z,34.20
2023-02-16T06:20:56.588Z,33.03
2023-02-16T06:23:23.007Z,34.63
2023-02-16T06:25:51.541Z,33.30
2023-02-16T06:28:17.893Z,33.65
2023-02-16T06:30:44.329Z,32.92
2023-02-16T06:33:10.772Z,33.30
2023-02-16T06:35:37.134Z,33.83
2023-02-16T06:38:03.496Z,34.08
2023-02-16T06:40:29.924Z,34.45
2023-02-16T06:42:56.311Z,33.20
2023-02-16T06:45:22.707Z,34.27
2023-02-16T06:47:49.061Z,33.45
2023-02-16T06:50:15.496Z,33.72
2023-02-16T06:52:41.850Z,33.55
2023-02-16T06:55:08.618Z,34.20
2023-02-16T06:57:34.966Z,33.50
2023-02-16T07:00:01.333Z,34.13
2023-02-16T07:02:27.668Z,34.58
2023-02-16T07:04:54.570Z,33.25
2023-02-16T07:07:21.159Z,35.03
2023-02-16T07:09:47.718Z,34.77
2023-02-16T07:12:14.095Z,35.53
2023-02-16T07:14:41.603Z,34.53
2023-02-16T07:17:08.858Z,35.20
2023-02-16T07:19:35.212Z,34.10
2023-02-16T07:22:02.363Z,35.77
2023-02-16T07:24:28.822Z,33.97
2023-02-16T07:26:55.381Z,35.10
2023-02-16T07:29:22.285Z,34.75
2023-02-16T07:31:48.893Z,34.25
2023-02-16T07:34:15.365Z,35.27
2023-02-16T07:36:42.180Z,35.38
2023-02-16T07:39:08.555Z,34.85
2023-02-16T07:41:34.936Z,34.13
2023-02-16T07:44:01.327Z,34.28
2023-02-16T07:46:27.852Z,34.33
2023-02-16T07:48:54.214Z,33.00
2023-02-16T07:51:22.602Z,33.95
2023-02-16T07:53:49.051Z,34.03
2023-02-16T07:56:20.684Z,34.45
2023-02-16T07:58:47.384Z,34.37
2023-02-16T08:01:15.976Z,33.75
2023-02-16T08:03:42.431Z,33.13
2023-02-16T08:06:09.433Z,33.00
2023-02-16T08:08:37.173Z,33.83
2023-02-16T08:11:15.337Z,33.23
2023-02-16T08:13:42.388Z,33.47
2023-02-16T08:16:11.084Z,33.50
2023-02-16T08:18:38.803Z,33.28
2023-02-16T08:21:13.942Z,33.28
2023-02-16T08:23:47.417Z,35.73
2023-02-16T08:26:17.307Z,32.45
2023-02-16T08:28:47.832Z,34.47
2023-02-16T08:31:16.943Z,33.00
2023-02-16T08:33:43.944Z,34.20
2023-02-16T08:36:21.127Z,33.97
2023-02-16T08:38:50.803Z,33.92
2023-02-16T08:41:19.543Z,33.35
2023-02-16T08:43:47.049Z,34.17
2023-02-16T08:46:14.190Z,33.65
2023-02-16T08:48:40.847Z,33.40
2023-02-16T08:51:07.989Z,33.85
2023-02-16T08:53:34.970Z,33.50
2023-02-16T08:56:04.570Z,33.72
2023-02-16T08:58:31.659Z,34.50
2023-02-16T09:00:58.150Z,34.13
2023-02-16T09:03:25.102Z,34.28
2023-02-16T09:05:53.095Z,35.90
2023-02-16T09:08:19.594Z,35.63
2023-02-16T09:10:45.978Z,35.53
2023-02-16T09:13:16.032Z,34.47
2023-02-16T09:15:43.353Z,36.30
2023-02-16T09:18:12.447Z,36.72
2023-02-16T09:20:41.179Z,35.92
2023-02-16T09:23:10.602Z,35.13
2023-02-16T09:25:38.485Z,36.10
2023-02-16T09:28:06.373Z,35.40
2023-02-16T09:30:34.528Z,35.90
2023-02-16T09:33:02.106Z,36.30
2023-02-16T09:35:28.550Z,35.38
2023-02-16T09:37:54.984Z,35.63
2023-02-16T09:40:21.816Z,35.17
2023-02-16T09:43:09.805Z,36.38
2023-02-16T09:45:58.102Z,34.65
2023-02-16T09:48:35.493Z,36.75
2023-02-16T09:51:05.286Z,35.50
2023-02-16T09:53:41.582Z,35.33
2023-02-16T09:56:22.566Z,37.28
2023-02-16T09:58:56.128Z,34.90
2023-02-16T10:01:37.868Z,35.97
2023-02-16T10:04:21.564Z,34.87
2023-02-16T10:07:06.097Z,35.97
2023-02-16T10:09:33.767Z,35.53
2023-02-16T10:12:02.791Z,35.97
2023-02-16T10:14:49.256Z,36.55
2023-02-16T10:17:33.863Z,36.07
2023-02-16T10:20:40.706Z,37.30
2023-02-16T10:23:32.920Z,36.85
2023-02-16T10:26:14.217Z,37.88
2023-02-16T10:28:46.499Z,36.88
2023-02-16T10:31:20.447Z,38.87
2023-02-16T10:34:05.429Z,38.40
2023-02-16T10:37:00.448Z,37.03
2023-02-16T10:39:43.356Z,38.55
2023-02-16T10:42:41.459Z,37.53
2023-02-16T10:45:27.382Z,38.87
2023-02-16T10:47:54.381Z,38.63
2023-02-16T10:50:29.766Z,37.47
2023-02-16T10:53:01.311Z,37.75
2023-02-16T10:55:27.772Z,38.33
2023-02-16T10:57:58.165Z,37.93
2023-02-16T11:00:48.335Z,38.20
2023-02-16T11:03:15.525Z,37.95
2023-02-16T11:05:42.307Z,38.20
2023-02-16T11:08:14.085Z,39.20
2023-02-16T11:10:46.952Z,39.73
2023-02-16T11:13:26.887Z,39.63
2023-02-16T11:15:56.251Z,40.20
2023-02-16T11:18:33.503Z,39.90
2023-02-16T11:21:00.835Z,40.65
2023-02-16T11:23:39.617Z,39.60
2023-02-16T11:26:11.792Z,41.65
2023-02-16T11:28:43.988Z,42.17
2023-02-16T11:31:36.709Z,41.53
2023-02-16T11:34:23.350Z,40.50
2023-02-16T11:36:49.788Z,41.43
2023-02-16T11:39:23.015Z,42.75
2023-02-16T11:42:06.028Z,40.80
2023-02-16T11:44:35.668Z,41.33
2023-02-16T11:47:08.620Z,42.28
2023-02-16T11:49:38.638Z,42.50
2023-02-16T11:52:23.149Z,42.65
2023-02-16T11:54:56.006Z,42.00
2023-02-16T11:57:42.659Z,41.42
2023-02-16T12:00:22.153Z,41.20
2023-02-16T12:03:25.038Z,42.13
2023-02-16T12:06:16.180Z,41.28
2023-02-16T12:08:45.356Z,41.03
2023-02-16T12:11:43.388Z,42.08
2023-02-16T12:14:23.837Z,41.15
2023-02-16T12:16:57.645Z,42.80
2023-02-16T12:19:28.148Z,41.22
2023-02-16T12:22:32.416Z,42.13
2023-02-16T12:25:19.782Z,41.30
2023-02-16T12:28:05.797Z,40.20
2023-02-16T12:30:55.179Z,40.43
2023-02-16T12:33:40.478Z,41.47
2023-02-16T12:36:27.302Z,40.42
2023-02-16T12:39:05.965Z,40.05
2023-02-16T12:41:51.627Z,39.35
2023-02-16T12:44:30.781Z,39.07
2023-02-16T12:47:04.526Z,38.58
2023-02-16T12:49:46.106Z,41.50
2023-02-16T12:52:40.227Z,39.70
2023-02-16T12:55:11.708Z,39.45
2023-02-16T12:57:46.247Z,39.97
2023-02-16T13:00:33.182Z,38.55
2023-02-16T13:03:17.061Z,37.85
2023-02-16T13:05:49.017Z,37.25
2023-02-16T13:08:30.123Z,37.63
2023-02-16T13:11:04.893Z,37.03
2023-02-16T13:13:34.355Z,36.28
2023-02-16T13:16:28.725Z,36.72
2023-02-16T13:18:57.127Z,34.95
2023-02-16T13:21:51.621Z,34.38
2023-02-16T13:24:30.784Z,31.03
2023-02-16T13:27:18.311Z,32.10
2023-02-16T13:29:55.177Z,33.55
2023-02-16T13:32:40.361Z,30.70
2023-02-16T13:35:29.983Z,30.02
2023-02-16T13:38:05.166Z,28.57
2023-02-16T13:40:45.324Z,30.10
2023-02-16T13:43:30.009Z,29.33
2023-02-16T13:45:58.267Z,31.08
2023-02-16T13:48:38.237Z,30.13
2023-02-16T13:51:11.837Z,28.90
2023-02-16T13:53:41.746Z,29.80
2023-02-16T13:56:22.196Z,27.73
2023-02-16T13:58:51.259Z,27.90
2023-02-16T14:01:37.726Z,23.85
2023-02-16T14:04:13.399Z,23.80
2023-02-16T14:06:42.636Z,25.10
2023-02-16T14:09:15.293Z,24.83
2023-02-16T14:11:50.753Z,30.23
2023-02-16T14:14:31.568Z,29.77
2023-02-16T14:17:32.276Z,29.73
2023-02-16T14:20:13.744Z,27.40
2023-02-16T14:22:43.083Z,28.02
2023-02-16T14:25:27.092Z,27.58
2023-02-16T14:27:59.394Z,26.42
2023-02-16T14:30:36.970Z,27.97
2023-02-16T14:33:12.447Z,26.58
2023-02-16T14:35:42.046Z,26.55
2023-02-16T14:38:20.760Z,26.67
2023-02-16T14:41:02.025Z,26.42
2023-02-16T14:43:43.769Z,26.47
2023-02-16T14:46:30.422Z,27.23
2023-02-16T14:49:13.000Z,27.08
2023-02-16T14:52:00.153Z,27.20
2023-02-16T14:54:41.836Z,26.83
2023-02-16T14:57:16.021Z,27.70
2023-02-16T15:00:19.823Z,28.58
2023-02-16T15:03:15.713Z,28.58
2023-02-16T15:05:43.137Z,28.15
2023-02-16T15:08:16.830Z,29.35
2023-02-16T15:10:47.544Z,28.40
2023-02-16T15:13:26.537Z,29.23
2023-02-16T15:15:56.672Z,29.42
2023-02-16T15:18:27.672Z,30.25
2023-02-16T15:20:58.430Z,31.35
2023-02-16T15:23:28.372Z,30.50
2023-02-16T15:26:01.177Z,30.50
2023-02-16T15:28:30.699Z,30.80
2023-02-16T15:31:01.103Z,30.70
2023-02-16T15:33:36.335Z,31.48
2023-02-16T15:36:18.759Z,30.80
2023-02-16T15:38:51.125Z,31.35
2023-02-16T15:41:26.744Z,30.48
2023-02-16T15:43:53.548Z,30.33
2023-02-16T15:46:37.640Z,31.42
2023-02-16T15:49:11.177Z,31.33
2023-02-16T15:51:38.294Z,34.33
2023-02-16T15:54:13.222Z,31.52
2023-02-16T15:56:51.529Z,32.25
2023-02-16T15:59:20.882Z,32.75
2023-02-16T16:01:47.857Z,32.70
2023-02-16T16:04:21.293Z,31.90
2023-02-16T16:06:49.997Z,32.10
2023-02-16T16:09:24.126Z,33.58
2023-02-16T16:11:51.812Z,33.47
2023-02-16T16:14:18.853Z,33.67
2023-02-16T16:16:46.069Z,34.05
2023-02-16T16:19:19.005Z,34.15
2023-02-16T16:21:47.870Z,33.30
2023-02-16T16:24:28.167Z,35.35
2023-02-16T16:26:57.737Z,35.43
2023-02-16T16:29:45.497Z,35.70
2023-02-16T16:32:22.000Z,35.05
2023-02-16T16:34:49.562Z,34.33
2023-02-16T16:37:33.060Z,35.75
2023-02-16T16:40:01.816Z,35.10
2023-02-16T16:42:28.603Z,35.38
2023-02-16T16:44:59.405Z,36.42
2023-02-16T16:47:30.386Z,36.00
2023-02-16T16:50:05.703Z,35.20
2023-02-16T16:52:42.726Z,35.33
2023-02-16T16:55:21.570Z,34.78
2023-02-16T16:57:50.177Z,35.35
2023-02-16T17:00:17.947Z,34.20
2023-02-16T17:02:44.985Z,34.97
2023-02-16T17:05:11.825Z,35.53
2023-02-16T17:07:38.797Z,35.45
2023-02-16T17:10:05.699Z,34.35
2023-02-16T17:12:32.344Z,34.22
2023-02-16T17:15:00.582Z,33.10
2023-02-16T17:17:27.048Z,33.07
2023-02-16T17:19:53.530Z,32.67
2023-02-16T17:22:20.958Z,33.17
2023-02-16T17:24:47.516Z,33.15
2023-02-16T17:27:14.197Z,32.75
2023-02-16T17:29:42.919Z,32.33
2023-02-16T17:32:09.684Z,33.42
2023-02-16T17:34:36.195Z,32.13
2023-02-16T17:37:07.436Z,32.42
2023-02-16T17:39:35.009Z,33.95
2023-02-16T17:42:01.892Z,33.07
2023-02-16T17:44:28.249Z,34.03
2023-02-16T17:46:54.636Z,34.22
2023-02-16T17:49:21.044Z,34.33
2023-02-16T17:51:47.389Z,33.72
2023-02-16T17:54:13.844Z,34.33
2023-02-16T17:56:40.293Z,35.70
2023-02-16T17:59:06.719Z,36.20
2023-02-16T18:01:34.787Z,35.30
2023-02-16T18:04:03.194Z,36.97
2023-02-16T18:06:30.548Z,37.87
2023-02-16T18:08:56.931Z,36.53
2023-02-16T18:11:23.295Z,36.25
2023-02-16T18:13:49.784Z,37.47
2023-02-16T18:16:18.832Z,40.15
2023-02-16T18:18:45.698Z,41.03
2023-02-16T18:21:12.077Z,38.78
2023-02-16T18:23:38.772Z,40.55
2023-02-16T18:26:06.198Z,38.97
2023-02-16T18:28:34.769Z,39.72
2023-02-16T18:31:01.840Z,39.03
2023-02-16T18:33:28.273Z,38.53
2023-02-16T18:35:57.427Z,40.45
2023-02-16T18:38:24.768Z,39.70
2023-02-16T18:40:53.268Z,40.50
2023-02-16T18:43:21.063Z,41.13
2023-02-16T18:45:47.849Z,41.33
2023-02-16T18:48:14.444Z,41.75
2023-02-16T18:50:40.820Z,42.40
2023-02-16T18:53:07.214Z,42.55
2023-02-16T18:55:33.668Z,41.63
2023-02-16T18:58:01.252Z,40.58
2023-02-16T19:00:28.179Z,40.97
2023-02-16T19:02:55.363Z,41.00
2023-02-16T19:05:22.417Z,41.70
2023-02-16T19:07:49.590Z,40.53
2023-02-16T19:10:16.627Z,41.45
2023-02-16T19:12:43.036Z,41.58
2023-02-16T19:15:09.893Z,42.55
2023-02-16T19:17:38.512Z,42.30
2023-02-16T19:20:09.624Z,42.33
2023-02-16T19:22:37.214Z,40.75
2023-02-16T19:25:05.737Z,41.83
2023-02-16T19:27:32.242Z,42.10
2023-02-16T19:29:58.711Z,42.72
2023-02-16T19:32:25.160Z,42.53
2023-02-16T19:34:51.609Z,42.30
2023-02-16T19:37:18.304Z,41.90
2023-02-16T19:39:44.807Z,40.28
2023-02-16T19:42:11.257Z,42.70
2023-02-16T19:44:39.048Z,41.00
2023-02-16T19:47:05.433Z,41.05
2023-02-16T19:49:31.849Z,41.85
2023-02-16T19:52:02.296Z,40.72
2023-02-16T19:54:32.359Z,39.50
2023-02-16T19:56:58.764Z,40.10
2023-02-16T19:59:25.203Z,39.83
2023-02-16T20:01:51.727Z,40.42
2023-02-16T20:04:18.228Z,38.50
2023-02-16T20:06:45.215Z,39.58
2023-02-16T20:09:17.504Z,38.73
2023-02-16T20:11:43.911Z,39.60
2023-02-16T20:14:10.881Z,38.53
2023-02-16T20:16:37.391Z,37.25
2023-02-16T20:19:03.902Z,37.70
2023-02-16T20:21:30.898Z,36.33
2023-02-16T20:24:02.330Z,36.97
2023-02-16T20:26:34.166Z,36.10
2023-02-16T20:29:01.375Z,35.58
2023-02-16T20:31:33.277Z,36.42
2023-02-16T20:34:00.772Z,35.27
2023-02-16T20:36:28.033Z,36.53
2023-02-16T20:38:54.601Z,35.00
2023-02-16T20:41:22.153Z,33.80
2023-02-16T20:43:48.598Z,34.55
2023-02-16T20:46:15.488Z,34.87
2023-02-16T20:48:42.514Z,33.30
2023-02-16T20:51:10.601Z,33.30
2023-02-16T20:53:37.088Z,32.88
2023-02-16T20:56:16.619Z,32.95
2023-02-16T20:58:44.486Z,32.50
2023-02-16T21:01:23.422Z,32.28
2023-02-16T21:03:50.881Z,30.58
2023-02-16T21:06:18.211Z,32.55
2023-02-16T21:08:44.701Z,32.60
2023-02-16T21:11:11.168Z,29.73
2023-02-16T21:13:38.850Z,29.35
2023-02-16T21:16:07.269Z,29.88
2023-02-16T21:18:34.842Z,30.23
2023-02-16T21:21:02.633Z,30.25
2023-02-16T21:23:29.741Z,28.50
2023-02-16T21:26:01.534Z,28.45
2023-02-16T21:28:28.760Z,28.42
2023-02-16T21:30:56.272Z,28.70
2023-02-16T21:33:22.868Z,26.88
2023-02-16T21:35:49.248Z,26.33
2023-02-16T21:38:17.604Z,26.50
2023-02-16T21:41:02.645Z,27.10
2023-02-16T21:43:29.088Z,25.55
2023-02-16T21:46:01.761Z,25.35
2023-02-16T21:48:50.008Z,24.70
2023-02-16T21:51:24.146Z,23.10
2023-02-16T21:53:51.652Z,23.92
2023-02-16T21:56:39.317Z,23.63
2023-02-16T21:59:09.031Z,22.77
2023-02-16T22:01:42.544Z,22.47
2023-02-16T22:04:11.883Z,22.45
2023-02-16T22:06:41.293Z,22.50
2023-02-16T22:09:10.961Z,22.08
2023-02-16T22:11:37.851Z,21.27
2023-02-16T22:14:04.314Z,21.03
2023-02-16T22:16:33.308Z,21.23
2023-02-16T22:19:02.933Z,21.40
2023-02-16T22:21:30.552Z,20.27
2023-02-16T22:23:57.966Z,20.55
2023-02-16T22:26:26.857Z,19.63
2023-02-16T22:28:54.205Z,20.00
2023-02-16T22:31:22.889Z,19.58
2023-02-16T22:33:58.239Z,17.88
2023-02-16T22:36:25.297Z,18.58
2023-02-16T22:38:52.559Z,18.33
2023-02-16T22:41:19.262Z,17.65
2023-02-16T22:43:45.699Z,18.27
2023-02-16T22:46:16.916Z,18.33
2023-02-16T22:48:44.192Z,17.92
2023-02-16T22:51:15.129Z,17.63
2023-02-16T22:53:41.610Z,17.45
2023-02-16T22:56:11.800Z,16.50
2023-02-16T22:58:38.198Z,16.48
2023-02-16T23:01:11.299Z,15.93
2023-02-16T23:03:37.712Z,16.40
2023-02-16T23:06:18.350Z,16.25
2023-02-16T23:08:45.668Z,15.73
2023-02-16T23:11:12.898Z,16.35
2023-02-16T23:13:39.292Z,16.08
2023-02-16T23:16:12.231Z,15.63
2023-02-16T23:18:38.680Z,14.73
2023-02-16T23:21:10.534Z,15.27
2023-02-16T23:23:37.021Z,14.70
2023-02-16T23:26:06.240Z,14.45
2023-02-16T23:28:33.820Z,14.97
2023-02-16T23:31:00.419Z,14.05
2023-02-16T23:33:26.819Z,14.55
2023-02-16T23:35:54.074Z,14.20
2023-02-16T23:38:20.831Z,13.23
2023-02-16T23:41:02.960Z,13.33
2023-02-16T23:43:30.278Z,12.98
2023-02-16T23:45:56.847Z,13.00
2023-02-16T23:48:24.046Z,12.75
2023-02-16T23:50:51.903Z,12.10
2023-02-16T23:53:19.326Z,11.87
2023-02-16T23:55:56.085Z,12.25
2023-02-16T23:58:22.452Z,11.75
